Time;durP1;ratioP1;P1;durP2;ratioP2;P2;SDS_P1;SDS_P2;PMS_P1;PMS_P2;Temp;Humidity;BMP_temperature;BMP_pressure;BME280_temperature;BME280_humidity;BME280_pressure;Samples;Min_cycle;Max_cycle;Signal;HPM_P1;HPM_P2
2023/12/22 00:02:20;;;;;;;16.77;3.00;;;6.00;99.90;;;;;;5026908;28;20407;-92
2023/12/22 00:04:46;;;;;;;17.57;3.20;;;6.00;99.90;;;;;;5010012;28;20508;-88
2023/12/22 00:07:12;;;;;;;24.30;3.88;;;5.90;99.90;;;;;;5010602;28;20932;-89
2023/12/22 00:09:37;;;;;;;21.65;3.65;;;6.00;99.90;;;;;;5010325;28;20823;-88
2023/12/22 00:12:03;;;;;;;29.08;4.45;;;5.90;99.90;;;;;;5010377;28;20407;-87
2023/12/22 00:14:29;;;;;;;26.05;4.40;;;6.20;99.90;;;;;;5011319;28;20439;-90
2023/12/22 00:16:55;;;;;;;27.35;4.88;;;6.20;99.90;;;;;;5014007;28;20444;-88
2023/12/22 00:19:20;;;;;;;30.00;5.10;;;6.30;99.90;;;;;;5013471;28;20900;-91
2023/12/22 00:21:46;;;;;;;24.98;5.10;;;6.30;99.90;;;;;;5029421;28;20500;-91
2023/12/22 00:24:11;;;;;;;32.85;5.30;;;6.40;99.90;;;;;;5030661;28;20475;-88
2023/12/22 00:26:37;;;;;;;27.90;4.67;;;6.10;99.90;;;;;;5012596;28;20405;-90
2023/12/22 00:29:03;;;;;;;25.03;4.50;;;5.70;99.90;;;;;;5014049;28;21033;-91
2023/12/22 00:31:28;;;;;;;28.42;4.93;;;5.40;99.90;;;;;;5029161;28;20405;-91
2023/12/22 00:33:54;;;;;;;30.50;4.47;;;5.30;99.90;;;;;;5013650;28;20420;-90
2023/12/22 00:36:24;;;;;;;29.23;4.50;;;5.20;99.90;;;;;;5013242;28;20405;-88
2023/12/22 00:38:50;;;;;;;32.35;5.38;;;5.10;99.90;;;;;;5012987;28;20407;-88
2023/12/22 00:41:15;;;;;;;29.05;4.93;;;5.10;99.90;;;;;;5013004;28;20428;-89
2023/12/22 00:43:41;;;;;;;29.03;5.13;;;5.20;99.90;;;;;;5012692;28;20412;-92
2023/12/22 00:46:06;;;;;;;25.23;3.90;;;5.40;99.90;;;;;;5013743;28;20401;-90
2023/12/22 00:48:32;;;;;;;24.80;3.75;;;5.80;99.90;;;;;;5012605;28;20401;-92
2023/12/22 00:50:58;;;;;;;18.42;3.17;;;5.90;99.90;;;;;;5017164;28;20445;-88
2023/12/22 00:53:23;;;;;;;17.87;2.73;;;5.80;99.90;;;;;;5017160;28;20772;-87
2023/12/22 00:55:49;;;;;;;17.73;2.37;;;5.80;99.90;;;;;;5017236;28;20454;-90
2023/12/22 00:58:15;;;;;;;19.60;2.72;;;5.70;99.90;;;;;;5016994;28;20409;-88
2023/12/22 01:00:40;;;;;;;19.90;3.05;;;5.80;99.90;;;;;;5016690;28;20433;-91
2023/12/22 01:03:06;;;;;;;18.30;3.10;;;5.80;99.90;;;;;;5017006;28;20852;-91
2023/12/22 01:05:31;;;;;;;17.90;2.78;;;5.80;99.90;;;;;;5016320;28;20444;-87
2023/12/22 01:07:57;;;;;;;16.98;2.50;;;5.60;99.90;;;;;;5017433;28;20439;-92
2023/12/22 01:10:23;;;;;;;16.50;2.30;;;5.30;99.90;;;;;;4996533;28;20960;-92
2023/12/22 01:12:48;;;;;;;18.10;2.50;;;5.20;99.90;;;;;;5013580;28;20877;-89
2023/12/22 01:15:14;;;;;;;16.50;2.33;;;5.10;99.90;;;;;;5013250;28;20461;-89
2023/12/22 01:17:40;;;;;;;18.48;2.35;;;5.10;99.90;;;;;;4997115;28;20794;-91
2023/12/22 01:20:06;;;;;;;17.07;2.17;;;5.10;99.90;;;;;;5013142;28;20426;-89
2023/12/22 01:22:33;;;;;;;22.13;2.85;;;5.20;99.90;;;;;;5013169;28;20806;-88
2023/12/22 01:24:59;;;;;;;19.08;3.40;;;5.40;99.90;;;;;;5013502;28;20933;-91
2023/12/22 01:27:25;;;;;;;19.92;3.53;;;5.40;99.90;;;;;;5016537;28;20496;-91
2023/12/22 01:29:50;;;;;;;19.40;2.97;;;5.70;99.90;;;;;;5016948;28;20433;-91
2023/12/22 01:32:16;;;;;;;23.38;3.45;;;6.00;99.90;;;;;;5016127;28;20963;-88
2023/12/22 01:34:42;;;;;;;21.37;3.33;;;6.10;99.90;;;;;;5017116;28;20488;-90
2023/12/22 01:37:09;;;;;;;18.90;3.83;;;6.20;99.90;;;;;;5016694;28;20916;-88
2023/12/22 01:39:35;;;;;;;22.63;3.25;;;6.20;99.90;;;;;;5032305;28;20413;-88
2023/12/22 01:42:00;;;;;;;18.80;2.73;;;6.20;99.90;;;;;;5016667;28;20510;-89
2023/12/22 01:44:26;;;;;;;20.13;3.00;;;6.20;99.90;;;;;;5015899;28;20436;-92
2023/12/22 01:46:52;;;;;;;21.67;3.13;;;6.30;99.90;;;;;;5016537;28;20401;-91
2023/12/22 01:49:17;;;;;;;19.63;2.97;;;6.10;99.90;;;;;;5015889;28;20405;-90
2023/12/22 01:51:44;;;;;;;21.50;3.40;;;6.20;99.90;;;;;;5016471;28;20420;-89
2023/12/22 01:54:12;;;;;;;23.30;3.53;;;6.20;99.90;;;;;;5016146;28;20783;-91
2023/12/22 01:56:38;;;;;;;23.88;4.03;;;6.20;99.90;;;;;;5016041;28;20467;-90
2023/12/22 01:59:04;;;;;;;23.42;4.10;;;6.20;99.90;;;;;;5032552;28;20433;-89
2023/12/22 02:01:29;;;;;;;21.48;3.70;;;6.40;99.90;;;;;;5014892;28;20429;-89
2023/12/22 02:03:56;;;;;;;25.60;4.05;;;6.40;99.90;;;;;;5016220;28;20484;-93
2023/12/22 02:06:22;;;;;;;28.85;3.92;;;6.40;99.90;;;;;;5015406;28;20401;-90
2023/12/22 02:08:48;;;;;;;24.42;3.75;;;6.20;99.90;;;;;;5015631;28;20915;-89
2023/12/22 02:11:14;;;;;;;24.97;4.17;;;5.80;99.90;;;;;;5015450;28;20517;-91
2023/12/22 02:13:43;;;;;;;23.23;4.32;;;5.60;99.90;;;;;;5032196;28;21019;-90
2023/12/22 02:16:46;;;;;;;30.45;4.70;;;5.30;99.90;;;;;;5015570;28;20413;-91
2023/12/22 02:19:38;;;;;;;30.17;4.72;;;5.30;99.90;;;;;;5015163;28;20954;-91
2023/12/22 02:22:05;;;;;;;28.40;4.45;;;5.30;99.90;;;;;;5016155;28;20424;-94
2023/12/22 02:24:31;;;;;;;27.73;4.22;;;5.30;99.90;;;;;;5015625;28;20970;-92
2023/12/22 02:27:04;;;;;;;26.30;4.17;;;5.30;99.90;;;;;;5015631;28;20488;-95
2023/12/22 02:29:35;;;;;;;31.50;3.87;;;5.40;99.90;;;;;;5015953;28;20796;-92
2023/12/22 02:32:05;;;;;;;28.65;4.45;;;5.50;99.90;;;;;;5031797;28;20443;-93
2023/12/22 02:34:33;;;;;;;22.13;3.20;;;5.40;99.90;;;;;;5016175;28;20428;-91
2023/12/22 02:36:59;;;;;;;18.70;2.70;;;5.40;99.90;;;;;;5015051;28;20407;-91
2023/12/22 02:39:25;;;;;;;17.88;2.88;;;5.60;99.90;;;;;;5015507;28;20435;-92
2023/12/22 02:41:51;;;;;;;19.37;2.70;;;5.70;99.90;;;;;;5015222;28;21019;-92
2023/12/22 02:44:17;;;;;;;22.45;2.88;;;5.90;99.90;;;;;;5015303;28;20963;-93
2023/12/22 02:46:43;;;;;;;15.77;2.65;;;5.70;99.90;;;;;;5015368;28;20444;-90
2023/12/22 02:49:09;;;;;;;17.55;1.80;;;5.60;99.90;;;;;;5014710;28;20964;-90
2023/12/22 02:51:34;;;;;;;13.65;1.42;;;5.50;99.90;;;;;;5015809;28;20406;-90
2023/12/22 02:54:00;;;;;;;16.93;2.13;;;5.50;99.90;;;;;;5014689;28;20410;-92
2023/12/22 02:56:26;;;;;;;16.30;2.03;;;5.70;99.90;;;;;;5015363;28;20497;-90
2023/12/22 02:58:51;;;;;;;11.83;2.00;;;5.50;99.90;;;;;;5014848;28;20413;-90
2023/12/22 03:01:17;;;;;;;14.48;1.88;;;5.50;99.90;;;;;;5014814;28;20429;-90
2023/12/22 03:03:43;;;;;;;14.90;1.67;;;5.70;99.90;;;;;;5031414;28;20410;-93
2023/12/22 03:06:08;;;;;;;19.70;2.10;;;5.60;99.90;;;;;;5014414;28;20409;-91
2023/12/22 03:08:34;;;;;;;17.90;2.47;;;5.70;99.90;;;;;;5014781;28;20416;-93
2023/12/22 03:10:59;;;;;;;21.40;3.45;;;5.70;99.90;;;;;;5013644;28;20410;-89
2023/12/22 03:13:25;;;;;;;20.57;2.80;;;6.10;99.90;;;;;;5015773;28;20409;-93
2023/12/22 03:15:51;;;;;;;19.47;3.10;;;6.20;99.90;;;;;;5013777;28;20422;-91
2023/12/22 03:18:20;;;;;;;21.88;3.15;;;6.00;99.90;;;;;;5032665;28;20414;-94
2023/12/22 03:20:49;;;;;;;19.25;2.95;;;6.10;99.90;;;;;;5026965;28;20489;-93
2023/12/22 03:23:14;;;;;;;23.80;3.05;;;6.40;99.90;;;;;;5039044;28;20420;-93
2023/12/22 03:26:04;;;;;;;26.40;3.25;;;6.40;99.90;;;;;;5031889;28;20406;-93
2023/12/22 03:28:39;;;;;;;27.88;3.40;;;6.30;99.90;;;;;;4987156;28;20443;-94
2023/12/22 03:31:06;;;;;;;23.17;3.42;;;6.20;99.90;;;;;;5037213;28;20927;-93
2023/12/22 03:33:36;;;;;;;27.10;3.45;;;6.00;99.90;;;;;;5034761;28;20405;-91
2023/12/22 03:36:01;;;;;;;22.60;3.80;;;6.00;99.90;;;;;;5033877;28;20424;-90
2023/12/22 03:38:27;;;;;;;25.85;4.07;;;6.00;99.90;;;;;;5014391;28;20919;-92
2023/12/22 03:40:52;;;;;;;24.27;3.75;;;6.30;99.90;;;;;;5014350;28;20425;-92
2023/12/22 03:43:18;;;;;;;20.60;3.43;;;6.30;99.90;;;;;;5013875;28;20417;-88
2023/12/22 03:45:44;;;;;;;26.13;4.77;;;6.30;99.90;;;;;;5014399;28;20458;-92
2023/12/22 03:48:09;;;;;;;22.42;3.38;;;6.60;99.90;;;;;;5013392;28;20405;-90
2023/12/22 03:50:35;;;;;;;26.30;4.28;;;6.40;99.90;;;;;;5014198;28;20414;-91
2023/12/22 03:53:01;;;;;;;25.90;3.83;;;6.60;99.90;;;;;;5013672;28;20409;-90
2023/12/22 03:55:26;;;;;;;23.50;3.73;;;6.70;99.90;;;;;;5013430;28;20890;-94
2023/12/22 03:57:52;;;;;;;23.02;3.40;;;6.70;99.90;;;;;;5013616;28;20466;-94
2023/12/22 04:00:18;;;;;;;20.03;3.13;;;6.60;99.90;;;;;;5013867;28;20413;-90
2023/12/22 04:02:44;;;;;;;20.27;3.40;;;6.80;99.90;;;;;;5014168;28;20402;-91
2023/12/22 04:05:11;;;;;;;19.87;3.83;;;7.20;99.90;;;;;;5013534;28;20440;-89
2023/12/22 04:07:37;;;;;;;21.70;3.40;;;7.00;99.90;;;;;;5014315;28;20765;-93
2023/12/22 04:10:03;;;;;;;24.80;3.95;;;6.80;99.90;;;;;;5030326;28;20409;-89
2023/12/22 04:12:29;;;;;;;25.90;3.80;;;6.90;99.90;;;;;;5013617;28;20726;-92
2023/12/22 04:14:57;;;;;;;23.00;3.63;;;6.90;99.90;;;;;;5013123;28;20421;-94
2023/12/22 04:17:23;;;;;;;21.77;3.38;;;6.90;99.90;;;;;;4997568;28;20467;-92
2023/12/22 04:19:52;;;;;;;22.43;3.60;;;6.90;99.90;;;;;;5013728;28;20432;-92
2023/12/22 04:22:18;;;;;;;22.00;3.35;;;7.00;99.90;;;;;;5013516;28;20474;-90
2023/12/22 04:24:43;;;;;;;18.57;3.00;;;7.00;99.90;;;;;;5016684;28;20579;-89
2023/12/22 04:27:09;;;;;;;21.35;3.42;;;6.90;99.90;;;;;;5019636;28;20511;-89
2023/12/22 04:29:35;;;;;;;25.43;4.00;;;7.00;99.90;;;;;;5020082;28;20417;-89
2023/12/22 04:32:00;;;;;;;22.30;3.67;;;7.20;99.90;;;;;;5019911;28;20792;-90
2023/12/22 04:34:26;;;;;;;21.15;3.58;;;7.00;99.90;;;;;;5019755;28;20439;-92
2023/12/22 04:36:52;;;;;;;28.63;4.35;;;7.00;99.90;;;;;;5019752;28;20412;-93
2023/12/22 04:39:17;;;;;;;24.47;3.53;;;7.10;99.90;;;;;;5036429;28;20451;-90
2023/12/22 04:41:43;;;;;;;22.27;3.50;;;7.00;99.90;;;;;;5019969;28;21016;-91
2023/12/22 04:44:09;;;;;;;24.00;3.47;;;7.10;99.90;;;;;;5019908;28;20500;-89
2023/12/22 04:46:34;;;;;;;18.87;3.23;;;7.20;99.90;;;;;;5019766;28;20447;-91
2023/12/22 04:49:01;;;;;;;20.67;3.13;;;7.10;99.90;;;;;;5019831;28;20408;-92
2023/12/22 04:51:27;;;;;;;19.48;3.17;;;7.10;99.90;;;;;;5020076;28;20409;-90
2023/12/22 04:53:52;;;;;;;19.03;3.37;;;7.10;99.90;;;;;;5019591;28;20983;-89
2023/12/22 04:56:18;;;;;;;18.85;3.05;;;7.10;99.90;;;;;;5019922;28;20405;-89
2023/12/22 04:58:44;;;;;;;21.17;3.17;;;7.20;99.90;;;;;;5020414;28;20405;-89
2023/12/22 05:01:09;;;;;;;18.20;3.27;;;7.50;99.90;;;;;;5036134;28;20417;-92
2023/12/22 05:03:35;;;;;;;21.58;3.03;;;7.10;99.90;;;;;;5020212;28;20409;-90
2023/12/22 05:06:01;;;;;;;20.30;3.33;;;7.20;99.90;;;;;;5018996;28;20421;-92
2023/12/22 05:08:26;;;;;;;17.03;2.63;;;7.10;99.90;;;;;;5019522;28;20413;-91
2023/12/22 05:10:52;;;;;;;18.73;3.27;;;7.20;99.90;;;;;;5019506;28;21033;-90
2023/12/22 05:13:18;;;;;;;20.30;2.60;;;7.20;99.90;;;;;;5019145;28;20397;-92
2023/12/22 05:15:43;;;;;;;21.73;3.63;;;7.20;99.90;;;;;;5018858;28;20409;-90
2023/12/22 05:18:09;;;;;;;20.73;3.30;;;7.20;99.90;;;;;;5035812;28;20424;-91
2023/12/22 05:20:35;;;;;;;23.17;3.67;;;7.50;99.90;;;;;;5019754;28;20436;-94
2023/12/22 05:23:00;;;;;;;22.15;3.40;;;7.20;99.90;;;;;;5019432;28;20405;-92
2023/12/22 05:25:26;;;;;;;21.63;3.00;;;7.30;99.90;;;;;;5019289;28;20824;-91
2023/12/22 05:27:52;;;;;;;20.15;2.97;;;7.50;99.90;;;;;;5019228;28;21011;-91
2023/12/22 05:30:17;;;;;;;19.75;2.90;;;7.30;99.90;;;;;;5035094;28;20401;-91
2023/12/22 05:32:44;;;;;;;22.40;2.93;;;7.30;99.90;;;;;;5019630;28;20484;-90
2023/12/22 05:35:10;;;;;;;19.23;2.65;;;7.30;99.90;;;;;;5051918;28;20409;-89
2023/12/22 05:37:36;;;;;;;16.98;2.92;;;7.20;99.90;;;;;;5016250;28;20407;-92
2023/12/22 05:40:02;;;;;;;19.40;2.95;;;7.20;99.90;;;;;;5050497;28;20460;-91
2023/12/22 05:42:28;;;;;;;20.38;3.22;;;7.20;99.90;;;;;;5049666;28;20393;-91
2023/12/22 05:44:54;;;;;;;22.00;2.90;;;7.30;99.90;;;;;;5016502;28;20505;-90
2023/12/22 05:47:19;;;;;;;15.67;2.43;;;7.30;99.90;;;;;;5016201;28;20441;-90
2023/12/22 05:49:45;;;;;;;17.00;2.33;;;7.30;99.90;;;;;;5016306;28;20421;-92
2023/12/22 05:52:14;;;;;;;16.83;2.43;;;7.30;99.90;;;;;;5019012;28;20866;-94
2023/12/22 05:54:39;;;;;;;18.10;2.67;;;7.30;99.90;;;;;;5018721;28;20432;-92
2023/12/22 05:57:06;;;;;;;17.70;2.93;;;7.20;99.90;;;;;;5016313;28;20444;-93
2023/12/22 05:59:32;;;;;;;15.80;2.53;;;7.30;99.90;;;;;;5017161;28;20416;-92
2023/12/22 06:01:59;;;;;;;19.27;2.53;;;7.20;99.90;;;;;;5029747;28;20480;-91
2023/12/22 06:04:27;;;;;;;16.80;2.35;;;7.30;99.90;;;;;;5069042;28;20402;-90
2023/12/22 06:06:53;;;;;;;16.75;2.63;;;7.60;99.90;;;;;;5085534;28;20436;-92
2023/12/22 06:09:21;;;;;;;13.90;1.97;;;7.30;99.90;;;;;;5069428;28;20862;-95
2023/12/22 06:11:48;;;;;;;17.42;2.72;;;7.30;99.90;;;;;;5020148;28;20794;-89
2023/12/22 06:14:17;;;;;;;16.48;2.35;;;7.10;99.90;;;;;;5061206;28;20397;-92
2023/12/22 06:16:43;;;;;;;15.30;2.10;;;7.30;99.90;;;;;;5018163;28;20449;-94
2023/12/22 06:19:09;;;;;;;17.80;2.78;;;7.30;99.90;;;;;;4999644;28;20437;-91
2023/12/22 06:21:38;;;;;;;14.77;2.40;;;7.30;99.90;;;;;;5015730;28;20413;-93
2023/12/22 06:24:08;;;;;;;17.13;2.65;;;7.30;99.90;;;;;;5018768;28;20398;-93
2023/12/22 06:26:33;;;;;;;16.38;2.58;;;7.30;99.90;;;;;;5019931;28;20413;-94
2023/12/22 06:28:59;;;;;;;14.73;2.03;;;7.30;99.90;;;;;;5021503;28;20441;-91
2023/12/22 06:31:28;;;;;;;16.77;2.50;;;7.40;99.90;;;;;;5054074;28;20449;-93
2023/12/22 06:34:16;;;;;;;18.38;2.78;;;7.20;99.90;;;;;;5039888;28;20508;-93
2023/12/22 06:36:42;;;;;;;16.00;2.23;;;7.20;99.90;;;;;;4981582;28;20407;-90
2023/12/22 06:39:08;;;;;;;16.60;2.50;;;7.20;99.90;;;;;;4996815;28;20410;-93
2023/12/22 06:41:34;;;;;;;15.57;1.70;;;7.20;99.90;;;;;;5016905;28;20470;-91
2023/12/22 06:44:00;;;;;;;17.47;2.73;;;7.50;99.90;;;;;;5011364;28;20440;-91
2023/12/22 06:46:26;;;;;;;17.77;2.33;;;7.20;99.90;;;;;;5051108;28;20417;-93
2023/12/22 06:48:52;;;;;;;14.90;2.08;;;7.10;99.90;;;;;;5016069;28;20765;-90
2023/12/22 06:51:26;;;;;;;16.65;2.42;;;7.20;99.90;;;;;;5015744;28;20409;-90
2023/12/22 06:53:52;;;;;;;16.60;2.30;;;7.20;99.90;;;;;;5016239;28;20491;-91
2023/12/22 06:56:44;;;;;;;17.48;2.47;;;7.30;99.90;;;;;;5049587;28;20470;-93
2023/12/22 06:59:11;;;;;;;16.83;2.63;;;7.20;99.90;;;;;;5048831;28;20923;-94
2023/12/22 07:01:37;;;;;;;15.50;1.97;;;7.20;99.90;;;;;;5015919;28;20429;-93
2023/12/22 07:04:04;;;;;;;20.90;2.47;;;7.20;99.90;;;;;;5065844;28;20501;-91
2023/12/22 07:06:34;;;;;;;19.38;2.22;;;7.20;99.90;;;;;;5020814;28;20435;-94
2023/12/22 07:09:12;;;;;;;16.92;2.60;;;7.10;99.90;;;;;;5020764;28;20920;-90
2023/12/22 07:11:41;;;;;;;16.17;2.38;;;7.20;99.90;;;;;;5053548;28;20456;-92
2023/12/22 07:14:07;;;;;;;16.08;2.30;;;7.20;99.90;;;;;;5031860;28;20433;-92
2023/12/22 07:16:36;;;;;;;16.00;2.80;;;7.30;99.90;;;;;;5051461;28;20419;-92
2023/12/22 07:19:03;;;;;;;18.35;2.53;;;7.20;99.90;;;;;;5050353;28;20408;-93
2023/12/22 07:21:28;;;;;;;16.67;1.95;;;6.90;99.90;;;;;;5019269;28;20433;-92
2023/12/22 07:23:54;;;;;;;14.30;2.10;;;7.20;99.90;;;;;;5052295;28;20390;-91
2023/12/22 07:26:21;;;;;;;15.77;2.70;;;7.20;99.90;;;;;;5053786;28;20390;-92
2023/12/22 07:28:47;;;;;;;17.92;2.53;;;7.20;99.90;;;;;;5054352;28;20487;-93
2023/12/22 07:31:17;;;;;;;16.48;2.30;;;7.30;99.90;;;;;;5020556;28;21244;-93
2023/12/22 07:33:43;;;;;;;20.95;3.55;;;7.20;99.90;;;;;;5050578;28;20443;-92
2023/12/22 07:36:09;;;;;;;18.87;2.37;;;7.40;99.90;;;;;;5049252;28;20406;-94
2023/12/22 07:38:42;;;;;;;19.33;2.50;;;7.30;99.90;;;;;;5048710;28;20412;-94
2023/12/22 07:41:16;;;;;;;19.17;2.50;;;7.00;99.90;;;;;;5017707;28;20513;-94
2023/12/22 07:43:42;;;;;;;18.73;2.78;;;7.30;99.90;;;;;;5015881;28;20465;-92
2023/12/22 07:46:18;;;;;;;17.53;2.77;;;7.20;99.90;;;;;;5049969;28;20435;-94
2023/12/22 07:48:45;;;;;;;23.48;2.78;;;7.40;99.90;;;;;;5016185;28;20535;-91
2023/12/22 07:51:11;;;;;;;17.70;2.58;;;7.20;99.90;;;;;;5050190;28;20402;-91
2023/12/22 07:53:36;;;;;;;17.23;2.60;;;7.40;99.90;;;;;;5020673;28;20405;-90
2023/12/22 07:56:05;;;;;;;22.17;3.30;;;7.30;99.90;;;;;;5016935;28;20940;-93
2023/12/22 07:58:31;;;;;;;19.98;2.80;;;7.20;99.90;;;;;;5016413;28;20417;-90
2023/12/22 08:01:00;;;;;;;19.75;3.03;;;7.40;99.90;;;;;;5015334;28;20479;-93
2023/12/22 08:03:28;;;;;;;24.25;3.08;;;7.30;99.90;;;;;;5019562;28;20401;-94
2023/12/22 08:05:55;;;;;;;24.53;3.10;;;7.50;99.90;;;;;;5018666;28;20919;-92
2023/12/22 08:08:30;;;;;;;23.10;3.38;;;7.40;99.90;;;;;;5034004;28;20418;-90
2023/12/22 08:10:56;;;;;;;16.00;2.33;;;7.20;99.90;;;;;;5016424;28;20459;-92
2023/12/22 08:13:21;;;;;;;16.67;2.05;;;7.10;99.90;;;;;;5013299;28;20401;-93
2023/12/22 08:15:50;;;;;;;12.02;1.52;;;7.20;99.90;;;;;;5013457;28;20504;-93
2023/12/22 08:18:16;;;;;;;14.07;2.20;;;7.10;99.90;;;;;;5013859;28;21212;-91
2023/12/22 08:20:41;;;;;;;15.03;1.73;;;7.00;99.90;;;;;;5013393;28;20515;-91
2023/12/22 08:23:07;;;;;;;15.38;2.22;;;7.00;99.90;;;;;;5014780;28;20536;-92
2023/12/22 08:25:41;;;;;;;12.90;1.83;;;6.90;99.90;;;;;;5016999;28;20489;-94
2023/12/22 08:28:07;;;;;;;11.95;1.40;;;6.80;99.90;;;;;;5016716;28;20447;-92
2023/12/22 08:30:33;;;;;;;13.05;1.08;;;6.80;99.90;;;;;;5012808;28;20479;-91
2023/12/22 08:32:59;;;;;;;10.60;1.33;;;6.90;99.90;;;;;;5014677;28;20410;-92
2023/12/22 08:35:25;;;;;;;11.90;1.33;;;6.90;99.90;;;;;;5030015;28;20419;-91
2023/12/22 08:37:50;;;;;;;10.93;1.05;;;6.50;99.90;;;;;;5029997;28;20795;-93
2023/12/22 08:40:16;;;;;;;12.20;1.00;;;6.80;99.90;;;;;;5013653;28;20418;-92
2023/12/22 08:42:42;;;;;;;10.93;1.00;;;6.40;99.90;;;;;;5014488;28;20923;-90
2023/12/22 08:45:08;;;;;;;10.02;0.93;;;6.30;99.90;;;;;;5013707;28;20436;-92
2023/12/22 08:47:33;;;;;;;10.23;1.02;;;6.20;99.90;;;;;;5013214;28;20908;-92
2023/12/22 08:49:59;;;;;;;13.02;1.50;;;6.40;99.90;;;;;;5032558;28;20408;-92
2023/12/22 08:52:24;;;;;;;10.67;0.93;;;6.40;99.90;;;;;;5031924;28;20405;-92
2023/12/22 08:54:50;;;;;;;9.27;0.93;;;6.20;99.90;;;;;;5013738;28;20504;-94
2023/12/22 08:57:16;;;;;;;14.25;1.40;;;6.50;99.90;;;;;;5015776;28;20432;-92
2023/12/22 08:59:41;;;;;;;11.60;1.20;;;6.60;99.90;;;;;;5017765;28;20456;-94
2023/12/22 09:02:22;;;;;;;12.30;1.50;;;6.50;99.90;;;;;;5016921;28;20921;-93
2023/12/22 09:04:47;;;;;;;13.40;1.40;;;6.50;99.90;;;;;;5000068;28;20428;-92
2023/12/22 09:07:13;;;;;;;12.70;1.70;;;6.50;99.90;;;;;;5019044;28;20911;-92
2023/12/22 09:09:40;;;;;;;12.50;1.20;;;6.50;99.90;;;;;;5017089;28;20405;-92
2023/12/22 09:12:06;;;;;;;13.98;1.33;;;6.60;99.90;;;;;;5017147;28;20405;-91
2023/12/22 09:14:31;;;;;;;20.05;2.10;;;6.60;99.90;;;;;;5017693;28;20444;-91
2023/12/22 09:16:57;;;;;;;17.58;2.15;;;6.60;99.90;;;;;;5020628;28;20405;-94
2023/12/22 09:19:26;;;;;;;17.52;1.77;;;6.70;99.90;;;;;;5035044;28;20964;-95
2023/12/22 09:21:52;;;;;;;18.48;1.70;;;6.70;99.90;;;;;;5018679;28;20422;-94
2023/12/22 09:24:17;;;;;;;18.17;2.23;;;6.90;99.90;;;;;;5036770;28;20471;-94
2023/12/22 09:26:43;;;;;;;17.60;1.83;;;7.50;99.90;;;;;;5019134;28;20436;-92
2023/12/22 09:29:09;;;;;;;17.95;2.50;;;6.90;99.90;;;;;;5018871;28;20445;-92
2023/12/22 09:31:34;;;;;;;14.53;1.87;;;6.90;99.90;;;;;;5017509;28;20808;-93
2023/12/22 09:34:00;;;;;;;14.33;1.73;;;7.10;99.90;;;;;;5017100;28;20604;-92
2023/12/22 09:36:26;;;;;;;16.52;2.78;;;7.00;99.90;;;;;;5034276;28;20448;-90
2023/12/22 09:38:52;;;;;;;16.85;2.10;;;7.00;99.90;;;;;;5018081;28;20406;-93
2023/12/22 09:41:17;;;;;;;17.35;2.08;;;7.10;99.90;;;;;;5016837;28;21003;-90
2023/12/22 09:43:46;;;;;;;18.35;2.00;;;7.20;99.90;;;;;;5017378;28;20899;-91
2023/12/22 09:46:14;;;;;;;17.13;1.70;;;7.20;99.90;;;;;;5016924;28;20428;-91
2023/12/22 09:48:40;;;;;;;14.57;1.73;;;7.20;99.90;;;;;;5016095;28;20401;-93
2023/12/22 09:51:08;;;;;;;15.35;1.90;;;7.20;99.90;;;;;;5033090;28;20409;-91
2023/12/22 09:53:35;;;;;;;16.33;1.92;;;7.50;99.90;;;;;;5016336;28;20409;-92
2023/12/22 09:56:01;;;;;;;17.02;1.95;;;7.30;99.90;;;;;;5016564;28;20450;-91
2023/12/22 09:58:27;;;;;;;19.37;2.30;;;7.30;99.90;;;;;;5017649;28;20500;-93
2023/12/22 10:00:54;;;;;;;15.10;2.10;;;7.50;99.90;;;;;;5016484;28;20436;-92
2023/12/22 10:03:21;;;;;;;18.20;1.75;;;7.40;99.90;;;;;;5017457;28;20493;-88
2023/12/22 10:05:47;;;;;;;16.30;1.73;;;7.20;99.90;;;;;;5066221;28;20406;-91
2023/12/22 10:08:21;;;;;;;16.42;2.30;;;7.40;99.90;;;;;;5017701;28;20407;-94
2023/12/22 10:10:47;;;;;;;15.27;2.17;;;7.40;99.90;;;;;;5017432;28;20441;-93
2023/12/22 10:13:13;;;;;;;14.37;2.40;;;7.10;99.90;;;;;;5017428;28;20968;-91
2023/12/22 10:15:44;;;;;;;13.13;1.95;;;7.70;99.90;;;;;;5013691;28;20420;-95
2023/12/22 10:18:11;;;;;;;16.33;1.63;;;7.80;99.90;;;;;;5013097;28;20816;-91
2023/12/22 10:20:36;;;;;;;13.48;1.50;;;7.60;99.90;;;;;;5012229;28;20497;-92
2023/12/22 10:23:02;;;;;;;16.50;2.05;;;7.60;99.90;;;;;;5012299;28;20878;-90
2023/12/22 10:25:32;;;;;;;17.95;1.75;;;7.60;99.90;;;;;;5012564;28;21180;-91
2023/12/22 10:27:58;;;;;;;13.25;1.65;;;7.60;99.90;;;;;;5013294;28;20407;-92
2023/12/22 10:30:24;;;;;;;15.83;1.77;;;7.80;99.90;;;;;;5012133;28;20399;-93
2023/12/22 10:32:53;;;;;;;14.18;1.55;;;7.70;99.90;;;;;;5013165;28;20415;-92
2023/12/22 10:35:20;;;;;;;14.48;1.77;;;7.80;99.90;;;;;;5009247;28;20465;-91
2023/12/22 10:37:47;;;;;;;13.68;1.73;;;7.80;99.90;;;;;;5008620;28;20406;-93
2023/12/22 10:40:13;;;;;;;15.30;1.80;;;8.00;99.90;;;;;;5029348;28;20935;-91
2023/12/22 10:42:41;;;;;;;15.23;1.73;;;7.90;99.90;;;;;;5012499;28;20771;-90
2023/12/22 10:45:08;;;;;;;13.90;1.58;;;7.90;99.90;;;;;;5011983;28;20805;-92
2023/12/22 10:47:34;;;;;;;16.05;2.03;;;7.90;99.90;;;;;;5012459;28;20457;-92
2023/12/22 10:50:04;;;;;;;14.35;1.65;;;7.90;99.90;;;;;;5013085;28;20775;-92
2023/12/22 10:52:30;;;;;;;14.07;1.73;;;8.00;99.90;;;;;;5005448;28;20426;-90
2023/12/22 10:54:58;;;;;;;16.58;1.67;;;8.00;99.90;;;;;;5015349;28;20892;-93
2023/12/22 10:57:23;;;;;;;11.68;1.42;;;7.90;99.90;;;;;;5033935;28;20404;-91
2023/12/22 10:59:51;;;;;;;11.70;1.67;;;8.20;99.90;;;;;;5033816;28;20975;-94
2023/12/22 11:02:18;;;;;;;13.73;1.70;;;8.70;99.90;;;;;;5033456;28;20888;-94
2023/12/22 11:05:00;;;;;;;13.98;1.58;;;8.20;99.90;;;;;;5036624;28;20428;-94
2023/12/22 11:07:28;;;;;;;14.63;1.58;;;8.40;99.90;;;;;;5016596;28;20762;-94
2023/12/22 11:10:04;;;;;;;14.57;1.40;;;8.20;99.90;;;;;;5015510;28;20403;-94
2023/12/22 11:12:33;;;;;;;12.80;1.40;;;8.20;99.90;;;;;;5014721;28;20759;-94
2023/12/22 11:15:00;;;;;;;16.20;1.92;;;8.30;99.90;;;;;;5033475;28;20412;-94
2023/12/22 11:17:28;;;;;;;13.43;1.70;;;8.00;99.90;;;;;;5032179;28;20437;-92
2023/12/22 11:19:55;;;;;;;14.15;1.77;;;8.20;99.90;;;;;;5017131;28;20448;-93
2023/12/22 11:22:26;;;;;;;12.27;1.30;;;8.20;99.90;;;;;;5035831;28;20409;-93
2023/12/22 11:24:52;;;;;;;15.55;1.95;;;8.20;99.90;;;;;;5016880;28;20405;-93
2023/12/22 11:27:21;;;;;;;12.57;1.27;;;8.40;99.90;;;;;;5015503;28;20420;-92
2023/12/22 11:29:51;;;;;;;13.43;1.35;;;8.20;99.90;;;;;;5018923;28;20475;-93
2023/12/22 11:32:18;;;;;;;18.38;1.70;;;8.10;99.90;;;;;;5002249;28;20409;-91
2023/12/22 11:34:48;;;;;;;15.60;1.40;;;8.20;99.90;;;;;;5051188;28;20418;-94
2023/12/22 11:37:15;;;;;;;13.98;1.75;;;8.40;99.90;;;;;;5050441;28;20405;-93
2023/12/22 11:40:05;;;;;;;11.05;1.10;;;8.20;99.90;;;;;;5018727;28;20406;-94
2023/12/22 11:42:41;;;;;;;10.68;1.23;;;8.20;99.90;;;;;;5049803;28;20428;-94
2023/12/22 11:45:11;;;;;;;14.40;1.40;;;8.20;99.90;;;;;;5004805;28;20420;-94
2023/12/22 11:47:40;;;;;;;14.93;1.25;;;8.40;99.90;;;;;;5063368;28;20406;-94
2023/12/22 11:50:15;;;;;;;13.50;1.17;;;8.10;99.90;;;;;;5037416;28;20402;-94
2023/12/22 11:52:41;;;;;;;11.38;1.30;;;8.20;99.90;;;;;;5051167;28;20408;-94
2023/12/22 11:55:06;;;;;;;12.00;1.10;;;8.20;99.90;;;;;;5016125;28;20975;-93
2023/12/22 11:57:41;;;;;;;14.15;1.20;;;8.10;99.90;;;;;;5013308;28;20451;-94
2023/12/22 12:00:34;;;;;;;15.77;1.60;;;8.20;99.90;;;;;;5063110;28;20413;-94
2023/12/22 12:03:06;;;;;;;13.88;1.38;;;8.10;99.90;;;;;;5059448;28;20423;-91
2023/12/22 12:05:31;;;;;;;14.00;1.23;;;8.20;99.90;;;;;;5010464;28;20498;-93
2023/12/22 12:08:06;;;;;;;15.50;1.70;;;8.30;99.90;;;;;;5009948;28;20534;-91
2023/12/22 12:10:38;;;;;;;16.88;2.15;;;8.20;99.90;;;;;;5010872;28;20801;-94
2023/12/22 12:13:12;;;;;;;14.80;1.73;;;8.40;99.90;;;;;;5060619;28;20744;-93
2023/12/22 12:15:38;;;;;;;11.43;1.03;;;8.30;99.90;;;;;;5005159;28;20453;-93
2023/12/22 12:18:08;;;;;;;13.65;1.63;;;8.20;99.90;;;;;;5027322;28;20418;-93
2023/12/22 12:20:34;;;;;;;12.40;1.00;;;8.30;99.90;;;;;;5010599;28;20435;-92
2023/12/22 12:23:03;;;;;;;16.75;1.80;;;8.00;99.90;;;;;;5010833;28;20414;-94
2023/12/22 12:25:30;;;;;;;16.00;1.55;;;8.20;99.90;;;;;;5010283;28;20403;-91
2023/12/22 12:28:02;;;;;;;12.35;1.02;;;8.20;99.90;;;;;;5011033;28;20399;-91
2023/12/22 12:30:28;;;;;;;13.90;1.20;;;8.20;99.90;;;;;;5043928;28;20423;-93
2023/12/22 12:32:54;;;;;;;15.07;1.50;;;8.30;99.90;;;;;;5010830;28;20411;-92
2023/12/22 12:35:23;;;;;;;16.83;1.43;;;8.20;99.90;;;;;;5028235;28;20415;-91
2023/12/22 12:37:52;;;;;;;18.83;1.42;;;8.20;99.90;;;;;;5043969;28;20476;-94
2023/12/22 12:40:24;;;;;;;12.70;1.27;;;8.10;99.90;;;;;;5011044;28;20470;-93
2023/12/22 12:42:50;;;;;;;12.68;0.98;;;8.00;99.90;;;;;;5045532;28;20525;-92
2023/12/22 12:45:23;;;;;;;14.88;1.55;;;7.90;99.90;;;;;;5012543;28;20403;-93
2023/12/22 12:48:00;;;;;;;15.47;1.53;;;7.50;99.90;;;;;;5014319;28;20496;-90
2023/12/22 12:50:28;;;;;;;19.03;1.47;;;7.50;99.90;;;;;;5014416;28;20565;-91